createdAt,value
2022-12-18T00:01:38.766Z,2.47
2022-12-18T00:04:17.913Z,2.80
2022-12-18T00:06:44.613Z,2.58
2022-12-18T00:09:11.342Z,2.38
2022-12-18T00:11:37.890Z,2.40
2022-12-18T00:14:04.449Z,2.37
2022-12-18T00:16:33.851Z,2.28
2022-12-18T00:19:01.480Z,2.08
2022-12-18T00:21:29.364Z,2.25
2022-12-18T00:23:56.050Z,2.17
2022-12-18T00:26:28.089Z,2.10
2022-12-18T00:28:56.574Z,2.70
2022-12-18T00:31:25.171Z,2.35
2022-12-18T00:33:55.091Z,2.35
2022-12-18T00:36:24.623Z,2.55
2022-12-18T00:38:51.382Z,2.63
2022-12-18T00:41:38.692Z,2.30
2022-12-18T00:44:06.576Z,2.40
2022-12-18T00:46:33.161Z,2.10
2022-12-18T00:49:00.081Z,2.33
2022-12-18T00:51:27.506Z,2.27
2022-12-18T00:53:54.092Z,2.08
2022-12-18T00:56:20.670Z,2.80
2022-12-18T00:58:47.241Z,2.28
2022-12-18T01:01:13.912Z,2.13
2022-12-18T01:03:40.998Z,2.10
2022-12-18T01:06:09.860Z,2.67
2022-12-18T01:08:36.880Z,2.47
2022-12-18T01:11:09.479Z,2.20
2022-12-18T01:13:36.447Z,2.30
2022-12-18T01:16:03.468Z,2.20
2022-12-18T01:18:30.143Z,2.22
2022-12-18T01:20:56.701Z,2.65
2022-12-18T01:23:23.314Z,2.33
2022-12-18T01:25:49.886Z,2.35
2022-12-18T01:28:16.402Z,2.30
2022-12-18T01:30:42.959Z,2.25
2022-12-18T01:33:09.495Z,2.28
2022-12-18T01:35:46.107Z,2.33
2022-12-18T01:38:12.665Z,2.55
2022-12-18T01:40:39.238Z,2.30
2022-12-18T01:43:05.784Z,2.38
2022-12-18T01:45:33.485Z,2.53
2022-12-18T01:48:04.557Z,1.98
2022-12-18T01:50:40.843Z,2.60
2022-12-18T01:53:20.297Z,2.40
2022-12-18T01:55:53.260Z,2.22
2022-12-18T01:58:23.133Z,2.40
2022-12-18T02:00:49.733Z,2.50
2022-12-18T02:03:16.502Z,2.67
2022-12-18T02:05:50.576Z,2.30
2022-12-18T02:08:22.005Z,2.20
2022-12-18T02:11:06.809Z,2.35
2022-12-18T02:13:57.493Z,2.20
2022-12-18T02:16:40.325Z,2.40
2022-12-18T02:19:45.062Z,2.20
2022-12-18T02:22:17.194Z,2.20
2022-12-18T02:25:14.833Z,2.90
2022-12-18T02:27:42.495Z,2.20
2022-12-18T02:30:09.527Z,2.38
2022-12-18T02:32:39.674Z,2.30
2022-12-18T02:35:07.782Z,2.50
2022-12-18T02:37:35.428Z,2.45
2022-12-18T02:40:03.624Z,2.17
2022-12-18T02:42:30.185Z,2.40
2022-12-18T02:44:56.800Z,2.73
2022-12-18T02:47:26.008Z,2.30
2022-12-18T02:49:58.672Z,2.40
2022-12-18T02:52:47.383Z,2.20
2022-12-18T02:55:40.068Z,2.47
2022-12-18T02:58:17.802Z,2.27
2022-12-18T03:00:52.258Z,2.33
2022-12-18T03:03:33.692Z,2.58
2022-12-18T03:06:04.918Z,2.22
2022-12-18T03:08:36.493Z,2.45
2022-12-18T03:11:08.948Z,2.20
2022-12-18T03:13:48.688Z,2.28
2022-12-18T03:16:27.275Z,2.88
2022-12-18T03:19:02.893Z,2.60
2022-12-18T03:21:33.264Z,2.70
2022-12-18T03:24:00.593Z,2.30
2022-12-18T03:26:27.980Z,2.40
2022-12-18T03:29:01.158Z,2.28
2022-12-18T03:31:29.724Z,2.30
2022-12-18T03:34:02.428Z,2.05
2022-12-18T03:36:32.880Z,2.27
2022-12-18T03:38:59.477Z,2.30
2022-12-18T03:41:42.386Z,2.92
2022-12-18T03:44:15.714Z,2.55
2022-12-18T03:46:57.286Z,2.40
2022-12-18T03:49:50.001Z,2.20
2022-12-18T03:52:28.005Z,2.13
2022-12-18T03:54:56.352Z,2.50
2022-12-18T03:57:26.777Z,2.30
2022-12-18T03:59:57.406Z,2.65
2022-12-18T04:02:25.557Z,2.77
2022-12-18T04:04:58.681Z,2.60
2022-12-18T04:07:25.340Z,2.03
2022-12-18T04:09:55.173Z,2.30
2022-12-18T04:12:21.705Z,2.47
2022-12-18T04:14:48.209Z,2.33
2022-12-18T04:17:14.747Z,2.40
2022-12-18T04:19:41.274Z,2.47
2022-12-18T04:22:07.810Z,2.67
2022-12-18T04:24:35.542Z,2.35
2022-12-18T04:27:02.146Z,2.60
2022-12-18T04:29:29.190Z,2.40
2022-12-18T04:31:55.748Z,2.78
2022-12-18T04:34:22.339Z,2.22
2022-12-18T04:36:49.032Z,2.30
2022-12-18T04:39:19.503Z,2.30
2022-12-18T04:41:46.044Z,2.35
2022-12-18T04:44:12.599Z,2.35
2022-12-18T04:46:39.225Z,2.60
2022-12-18T04:49:05.845Z,2.50
2022-12-18T04:51:32.355Z,2.37
2022-12-18T04:53:58.894Z,2.10
2022-12-18T04:56:25.527Z,2.50
2022-12-18T04:58:52.115Z,2.15
2022-12-18T05:01:19.406Z,2.70
2022-12-18T05:03:46.411Z,2.23
2022-12-18T05:06:13.102Z,2.25
2022-12-18T05:08:39.722Z,2.35
2022-12-18T05:11:08.772Z,2.85
2022-12-18T05:13:36.057Z,2.40
2022-12-18T05:16:03.541Z,2.40
2022-12-18T05:18:30.144Z,2.17
2022-12-18T05:20:56.840Z,2.30
2022-12-18T05:23:24.885Z,2.58
2022-12-18T05:25:56.627Z,2.50
2022-12-18T05:28:24.505Z,2.40
2022-12-18T05:30:52.645Z,2.40
2022-12-18T05:33:19.961Z,2.55
2022-12-18T05:35:51.827Z,2.28
2022-12-18T05:38:19.002Z,2.55
2022-12-18T05:40:45.571Z,2.43
2022-12-18T05:43:15.381Z,2.40
2022-12-18T05:45:46.269Z,2.47
2022-12-18T05:48:14.020Z,2.35
2022-12-18T05:50:42.507Z,2.50
2022-12-18T05:53:09.401Z,2.20
2022-12-18T05:55:37.081Z,2.35
2022-12-18T05:58:04.873Z,2.40
2022-12-18T06:00:33.059Z,2.42
2022-12-18T06:03:00.181Z,2.60
2022-12-18T06:05:26.837Z,2.40
2022-12-18T06:07:53.374Z,2.60
2022-12-18T06:10:20.396Z,2.33
2022-12-18T06:12:46.935Z,1.88
2022-12-18T06:15:14.100Z,2.95
2022-12-18T06:17:41.206Z,2.43
2022-12-18T06:20:08.156Z,2.40
2022-12-18T06:22:35.879Z,2.55
2022-12-18T06:25:02.453Z,2.35
2022-12-18T06:27:29.013Z,2.83
2022-12-18T06:29:55.518Z,2.50
2022-12-18T06:32:22.081Z,2.95
2022-12-18T06:34:48.646Z,2.35
2022-12-18T06:37:15.488Z,2.60
2022-12-18T06:39:42.026Z,2.50
2022-12-18T06:42:08.534Z,2.10
2022-12-18T06:44:35.062Z,2.58
2022-12-18T06:47:01.605Z,2.67
2022-12-18T06:49:30.660Z,2.33
2022-12-18T06:51:57.462Z,2.95
2022-12-18T06:54:23.983Z,2.43
2022-12-18T06:56:50.592Z,2.40
2022-12-18T06:59:17.622Z,2.70
2022-12-18T07:01:44.386Z,2.70
2022-12-18T07:04:11.059Z,2.70
2022-12-18T07:06:37.586Z,2.67
2022-12-18T07:09:04.315Z,2.40
2022-12-18T07:11:33.686Z,2.50
2022-12-18T07:14:00.218Z,2.47
2022-12-18T07:16:26.939Z,2.28
2022-12-18T07:18:55.815Z,2.40
2022-12-18T07:21:23.465Z,3.05
2022-12-18T07:23:50.117Z,2.95
2022-12-18T07:26:18.844Z,2.60
2022-12-18T07:28:45.578Z,2.53
2022-12-18T07:31:15.550Z,2.70
2022-12-18T07:33:42.845Z,2.80
2022-12-18T07:36:10.829Z,2.85
2022-12-18T07:38:37.846Z,2.47
2022-12-18T07:41:06.788Z,2.50
2022-12-18T07:43:34.044Z,2.53
2022-12-18T07:46:00.784Z,2.55
2022-12-18T07:48:27.463Z,2.60
2022-12-18T07:50:54.264Z,2.22
2022-12-18T07:53:20.875Z,2.63
2022-12-18T07:56:18.465Z,2.60
2022-12-18T07:58:34.230Z,2.20
2022-12-18T08:01:08.455Z,2.78
2022-12-18T08:03:35.399Z,2.42
2022-12-18T08:06:02.815Z,2.80
2022-12-18T08:08:30.211Z,2.70
2022-12-18T08:10:57.278Z,2.63
2022-12-18T08:13:24.104Z,2.45
2022-12-18T08:16:06.858Z,2.58
2022-12-18T08:18:34.189Z,2.65
2022-12-18T08:21:19.115Z,2.67
2022-12-18T08:23:47.931Z,2.65
2022-12-18T08:26:15.744Z,2.85
2022-12-18T08:28:42.496Z,2.22
2022-12-18T08:31:09.266Z,2.60
2022-12-18T08:33:37.281Z,2.57
2022-12-18T08:36:05.075Z,2.45
2022-12-18T08:38:32.826Z,2.58
2022-12-18T08:41:04.722Z,2.55
2022-12-18T08:43:49.863Z,2.65
2022-12-18T08:46:16.484Z,2.60
2022-12-18T08:48:43.309Z,2.40
2022-12-18T08:51:10.673Z,2.30
2022-12-18T08:53:38.756Z,2.50
2022-12-18T08:56:06.134Z,2.40
2022-12-18T08:58:32.773Z,2.40
2022-12-18T09:01:08.419Z,2.20
2022-12-18T09:03:35.063Z,2.80
2022-12-18T09:06:01.811Z,2.50
2022-12-18T09:08:28.793Z,2.88
2022-12-18T09:10:56.123Z,2.13
2022-12-18T09:13:23.339Z,2.40
2022-12-18T09:15:54.232Z,2.78
2022-12-18T09:18:22.536Z,2.70
2022-12-18T09:20:49.475Z,2.42
2022-12-18T09:23:15.994Z,2.60
2022-12-18T09:25:42.633Z,2.35
2022-12-18T09:28:17.072Z,2.28
2022-12-18T09:30:46.781Z,2.75
2022-12-18T09:33:13.598Z,2.88
2022-12-18T09:35:42.158Z,2.40
2022-12-18T09:38:10.044Z,2.28
2022-12-18T09:40:49.197Z,2.60
2022-12-18T09:43:21.370Z,2.33
2022-12-18T09:45:54.919Z,2.35
2022-12-18T09:48:27.512Z,2.60
2022-12-18T09:50:58.727Z,2.25
2022-12-18T09:53:27.942Z,2.28
2022-12-18T09:55:55.614Z,2.25
2022-12-18T09:58:28.026Z,2.30
2022-12-18T10:00:55.667Z,2.40
2022-12-18T10:03:22.460Z,2.42
2022-12-18T10:06:13.802Z,2.78
2022-12-18T10:08:58.094Z,2.35
2022-12-18T10:11:51.708Z,2.22
2022-12-18T10:14:31.867Z,2.73
2022-12-18T10:17:29.457Z,2.20
2022-12-18T10:20:12.375Z,2.47
2022-12-18T10:23:00.404Z,2.15
2022-12-18T10:25:27.338Z,2.47
2022-12-18T10:27:57.548Z,2.13
2022-12-18T10:30:25.487Z,2.45
2022-12-18T10:32:52.241Z,2.50
2022-12-18T10:35:21.751Z,2.53
2022-12-18T10:38:17.371Z,2.53
2022-12-18T10:40:56.019Z,2.33
2022-12-18T10:43:27.035Z,2.22
2022-12-18T10:46:01.178Z,2.20
2022-12-18T10:48:28.665Z,2.33
2022-12-18T10:51:13.064Z,2.60
2022-12-18T10:53:41.426Z,2.27
2022-12-18T10:56:11.224Z,2.40
2022-12-18T10:58:40.006Z,2.38
2022-12-18T11:01:18.720Z,2.42
2022-12-18T11:03:52.957Z,2.10
2022-12-18T11:06:25.471Z,2.23
2022-12-18T11:09:01.669Z,2.13
2022-12-18T11:11:28.431Z,2.50
2022-12-18T11:14:00.736Z,2.35
2022-12-18T11:16:28.081Z,2.42
2022-12-18T11:18:54.869Z,2.20
2022-12-18T11:21:21.413Z,2.40
2022-12-18T11:23:52.015Z,2.30
2022-12-18T11:26:18.834Z,2.28
2022-12-18T11:28:48.576Z,2.40
2022-12-18T11:31:29.941Z,2.20
2022-12-18T11:36:50.351Z,2.58
2022-12-18T11:39:18.415Z,2.30
2022-12-18T11:42:10.191Z,2.75
2022-12-18T11:45:00.837Z,2.20
2022-12-18T11:48:04.476Z,2.90
2022-12-18T11:50:45.133Z,2.83
2022-12-18T11:53:12.773Z,2.33
2022-12-18T11:55:41.898Z,3.03
2022-12-18T11:58:29.399Z,2.70
2022-12-18T12:01:06.297Z,2.80
2022-12-18T12:03:32.841Z,2.42
2022-12-18T12:06:19.978Z,2.47
2022-12-18T12:09:15.859Z,2.60
2022-12-18T12:12:17.972Z,2.30
2022-12-18T12:15:03.039Z,2.47
2022-12-18T12:17:57.097Z,2.50
2022-12-18T12:20:34.772Z,2.40
2022-12-18T12:23:05.949Z,2.65
2022-12-18T12:25:48.091Z,2.40
2022-12-18T12:28:14.579Z,2.30
2022-12-18T12:31:01.043Z,2.33
2022-12-18T12:33:46.377Z,2.70
2022-12-18T12:36:34.541Z,2.47
2022-12-18T12:39:39.011Z,2.83
2022-12-18T12:42:26.132Z,2.63
2022-12-18T12:44:56.487Z,2.85
2022-12-18T12:47:31.875Z,2.40
2022-12-18T12:50:00.465Z,2.70
2022-12-18T12:52:37.208Z,2.40
2022-12-18T12:55:11.509Z,2.38
2022-12-18T12:57:44.597Z,2.70
2022-12-18T13:00:17.324Z,2.55
2022-12-18T13:03:13.675Z,2.88
2022-12-18T13:05:59.847Z,2.53
2022-12-18T13:08:33.323Z,2.85
2022-12-18T13:11:20.647Z,2.67
2022-12-18T13:13:53.139Z,2.38
2022-12-18T13:16:21.809Z,2.70
2022-12-18T13:18:57.907Z,2.20
2022-12-18T13:21:28.628Z,2.40
2022-12-18T13:23:56.729Z,2.40
2022-12-18T13:26:28.662Z,2.50
2022-12-18T13:28:57.356Z,2.70
2022-12-18T13:31:42.661Z,2.40
2022-12-18T13:34:28.271Z,2.33
2022-12-18T13:36:56.906Z,2.40
2022-12-18T13:39:34.235Z,2.60
2022-12-18T13:42:08.496Z,2.60
2022-12-18T13:44:40.563Z,2.47
2022-12-18T13:47:34.794Z,2.60
2022-12-18T13:50:03.218Z,2.75
2022-12-18T13:52:36.552Z,2.70
2022-12-18T13:55:06.960Z,2.60
2022-12-18T13:57:35.455Z,2.57
2022-12-18T14:00:37.922Z,2.13
2022-12-18T14:03:22.448Z,2.53
2022-12-18T14:05:58.184Z,2.40
2022-12-18T14:08:25.105Z,2.65
2022-12-18T14:10:53.438Z,2.70
2022-12-18T14:13:30.362Z,2.38
2022-12-18T14:15:59.235Z,2.47
2022-12-18T14:18:40.867Z,3.00
2022-12-18T14:21:07.961Z,2.70
2022-12-18T14:23:40.536Z,2.60
2022-12-18T14:26:29.807Z,2.53
2022-12-18T14:28:57.812Z,2.55
2022-12-18T14:31:26.680Z,2.85
2022-12-18T14:33:53.810Z,2.67
2022-12-18T14:36:23.542Z,2.40
2022-12-18T14:39:00.154Z,2.38
2022-12-18T14:41:27.475Z,2.50
2022-12-18T14:43:55.265Z,2.50
2022-12-18T14:46:34.240Z,2.58
2022-12-18T14:49:06.862Z,2.30
2022-12-18T14:51:34.719Z,2.90
2022-12-18T14:54:02.380Z,2.67
2022-12-18T14:56:35.335Z,2.55
2022-12-18T14:59:06.980Z,2.65
2022-12-18T15:01:39.885Z,2.70
2022-12-18T15:04:25.811Z,2.70
2022-12-18T15:07:05.621Z,2.25
2022-12-18T15:09:32.206Z,2.50
2022-12-18T15:12:00.894Z,2.63
2022-12-18T15:14:40.092Z,2.57
2022-12-18T15:17:20.001Z,2.85
2022-12-18T15:19:48.329Z,2.97
2022-12-18T15:22:35.666Z,2.47
2022-12-18T15:25:03.600Z,2.53
2022-12-18T15:27:39.142Z,2.93
2022-12-18T15:30:08.994Z,2.60
2022-12-18T15:32:39.812Z,2.63
2022-12-18T15:35:12.253Z,3.00
2022-12-18T15:37:39.102Z,2.70
2022-12-18T15:40:08.896Z,3.30
2022-12-18T15:42:54.105Z,2.50
2022-12-18T15:45:20.702Z,2.60
2022-12-18T15:47:50.701Z,2.22
2022-12-18T15:50:17.264Z,2.30
2022-12-18T15:52:47.371Z,2.70
2022-12-18T15:55:41.124Z,2.45
2022-12-18T15:58:09.724Z,2.40
2022-12-18T16:00:38.074Z,2.88
2022-12-18T16:03:05.456Z,3.15
2022-12-18T16:05:32.559Z,2.50
2022-12-18T16:07:59.298Z,2.70
2022-12-18T16:10:26.591Z,2.45
2022-12-18T16:12:53.261Z,2.97
2022-12-18T16:15:24.553Z,2.60
2022-12-18T16:17:52.680Z,2.43
2022-12-18T16:20:21.928Z,2.53
2022-12-18T16:22:49.314Z,2.78
2022-12-18T16:25:21.600Z,2.70
2022-12-18T16:27:49.600Z,2.72
2022-12-18T16:30:22.824Z,2.60
2022-12-18T16:32:49.510Z,2.85
2022-12-18T16:35:17.090Z,2.90
2022-12-18T16:37:45.521Z,3.08
2022-12-18T16:40:15.134Z,3.25
2022-12-18T16:42:43.348Z,2.73
2022-12-18T16:45:12.182Z,2.83
2022-12-18T16:47:39.910Z,3.60
2022-12-18T16:50:07.756Z,2.63
2022-12-18T16:52:34.908Z,3.13
2022-12-18T16:55:01.651Z,3.23
2022-12-18T16:57:28.232Z,3.05
2022-12-18T16:59:56.810Z,3.92
2022-12-18T17:02:27.752Z,3.08
2022-12-18T17:04:56.710Z,3.58
2022-12-18T17:07:24.040Z,3.20
2022-12-18T17:09:51.189Z,3.30
2022-12-18T17:12:18.217Z,3.42
2022-12-18T17:14:45.101Z,3.20
2022-12-18T17:17:26.933Z,3.03
2022-12-18T17:19:53.674Z,3.37
2022-12-18T17:22:23.133Z,3.75
2022-12-18T17:24:49.732Z,3.65
2022-12-18T17:27:16.630Z,3.60
2022-12-18T17:29:47.765Z,3.08
2022-12-18T17:32:15.505Z,3.00
2022-12-18T17:34:42.213Z,3.45
2022-12-18T17:37:09.354Z,3.63
2022-12-18T17:39:36.199Z,3.42
2022-12-18T17:42:03.123Z,3.53
2022-12-18T17:44:29.789Z,3.50
2022-12-18T17:46:56.492Z,3.15
2022-12-18T17:49:23.138Z,3.28
2022-12-18T17:51:49.810Z,3.15
2022-12-18T17:54:16.408Z,3.97
2022-12-18T17:56:43.252Z,3.37
2022-12-18T17:59:09.871Z,3.55
2022-12-18T18:01:42.541Z,3.40
2022-12-18T18:04:11.757Z,3.83
2022-12-18T18:06:39.051Z,4.43
2022-12-18T18:09:16.640Z,3.30
2022-12-18T18:12:03.014Z,4.00
2022-12-18T18:14:29.843Z,3.90
2022-12-18T18:16:56.611Z,3.35
2022-12-18T18:19:29.095Z,3.45
2022-12-18T18:21:55.668Z,3.40
2022-12-18T18:24:23.678Z,4.07
2022-12-18T18:26:50.811Z,4.18
2022-12-18T18:29:21.231Z,3.70
2022-12-18T18:31:48.779Z,3.53
2022-12-18T18:34:22.956Z,4.17
2022-12-18T18:36:49.551Z,3.88
2022-12-18T18:39:16.168Z,3.85
2022-12-18T18:41:45.417Z,4.35
2022-12-18T18:44:14.400Z,4.82
2022-12-18T18:46:41.021Z,4.27
2022-12-18T18:49:07.590Z,4.18
2022-12-18T18:51:35.186Z,4.30
2022-12-18T18:54:02.499Z,3.72
2022-12-18T18:59:16.510Z,3.50
2022-12-18T19:01:43.499Z,3.78
2022-12-18T19:04:10.373Z,3.97
2022-12-18T19:06:37.030Z,3.90
2022-12-18T19:09:04.972Z,4.30
2022-12-18T19:11:50.884Z,4.30
2022-12-18T19:14:17.574Z,4.30
2022-12-18T19:16:45.520Z,4.18
2022-12-18T19:19:18.278Z,4.28
2022-12-18T19:21:45.033Z,4.53
2022-12-18T19:24:11.613Z,4.10
2022-12-18T19:26:38.685Z,4.47
2022-12-18T19:29:07.028Z,4.50
2022-12-18T19:31:36.471Z,5.10
2022-12-18T19:34:05.333Z,4.95
2022-12-18T19:36:32.879Z,5.07
2022-12-18T19:39:01.352Z,4.30
2022-12-18T19:41:29.138Z,4.35
2022-12-18T19:43:58.443Z,4.72
2022-12-18T19:46:25.360Z,4.60
2022-12-18T19:48:52.200Z,4.40
2022-12-18T19:51:23.251Z,4.35
2022-12-18T19:53:54.984Z,4.88
2022-12-18T19:56:26.126Z,4.85
2022-12-18T19:58:53.638Z,4.40
2022-12-18T20:01:22.020Z,4.53
2022-12-18T20:03:51.509Z,4.40
2022-12-18T20:06:30.786Z,5.03
2022-12-18T20:09:00.485Z,4.55
2022-12-18T20:11:31.148Z,4.20
2022-12-18T20:13:58.416Z,4.20
2022-12-18T20:16:25.111Z,4.32
2022-12-18T20:18:52.429Z,4.85
2022-12-18T20:21:20.884Z,4.47
2022-12-18T20:23:47.440Z,4.57
2022-12-18T20:26:14.005Z,4.50
2022-12-18T20:28:40.841Z,4.50
2022-12-18T20:31:10.532Z,5.22
2022-12-18T20:33:40.677Z,4.47
2022-12-18T20:36:10.513Z,4.55
2022-12-18T20:38:39.110Z,4.40
2022-12-18T20:41:11.814Z,4.35
2022-12-18T20:43:39.377Z,4.53
2022-12-18T20:46:09.485Z,4.50
2022-12-18T20:48:36.212Z,4.43
2022-12-18T20:51:05.782Z,4.63
2022-12-18T20:53:33.463Z,4.20
2022-12-18T20:56:00.228Z,4.63
2022-12-18T20:58:26.797Z,4.80
2022-12-18T21:01:07.475Z,4.55
2022-12-18T21:03:36.944Z,4.10
2022-12-18T21:06:04.218Z,4.50
2022-12-18T21:08:30.783Z,4.25
2022-12-18T21:11:37.149Z,4.40
2022-12-18T21:14:15.129Z,4.70
2022-12-18T21:16:43.817Z,4.27
2022-12-18T21:19:16.165Z,4.07
2022-12-18T21:21:43.070Z,4.43
2022-12-18T21:24:10.579Z,4.45
2022-12-18T21:26:44.865Z,4.63
2022-12-18T21:29:15.142Z,4.60
2022-12-18T21:31:42.113Z,3.92
2022-12-18T21:34:10.857Z,4.50
2022-12-18T21:36:37.412Z,4.47
2022-12-18T21:39:03.977Z,4.57
2022-12-18T21:41:48.904Z,4.57
2022-12-18T21:44:17.357Z,5.05
2022-12-18T21:46:48.845Z,4.60
2022-12-18T21:49:21.248Z,4.32
2022-12-18T21:51:49.597Z,4.43
2022-12-18T21:54:17.017Z,4.27
2022-12-18T21:56:55.128Z,4.30
2022-12-18T21:59:33.680Z,5.03
2022-12-18T22:02:03.004Z,4.60
2022-12-18T22:04:30.151Z,4.45
2022-12-18T22:06:57.446Z,4.70
2022-12-18T22:09:25.177Z,4.40
2022-12-18T22:11:52.528Z,4.95
2022-12-18T22:14:19.808Z,4.07
2022-12-18T22:16:46.844Z,4.30
2022-12-18T22:19:14.159Z,4.97
2022-12-18T22:21:43.720Z,4.60
2022-12-18T22:24:21.411Z,4.97
2022-12-18T22:26:49.028Z,4.22
2022-12-18T22:29:44.032Z,4.47
2022-12-18T22:32:14.962Z,4.83
2022-12-18T22:34:42.686Z,4.40
2022-12-18T22:37:11.495Z,4.80
2022-12-18T22:39:38.159Z,4.50
2022-12-18T22:42:05.456Z,4.15
2022-12-18T22:44:32.028Z,4.33
2022-12-18T22:47:06.511Z,4.70
2022-12-18T22:49:34.950Z,4.28
2022-12-18T22:52:03.012Z,4.95
2022-12-18T22:54:29.708Z,4.07
2022-12-18T22:56:56.298Z,4.37
2022-12-18T22:59:23.463Z,4.20
2022-12-18T23:01:54.183Z,4.72
2022-12-18T23:04:32.960Z,4.22
2022-12-18T23:07:04.015Z,4.40
2022-12-18T23:09:30.574Z,4.30
2022-12-18T23:11:57.167Z,4.82
2022-12-18T23:14:23.725Z,4.57
2022-12-18T23:16:50.794Z,4.28
2022-12-18T23:19:19.680Z,4.20
2022-12-18T23:21:46.297Z,4.20
2022-12-18T23:24:12.886Z,3.80
2022-12-18T23:26:39.469Z,4.25
2022-12-18T23:29:06.281Z,4.18
2022-12-18T23:31:37.614Z,4.30
2022-12-18T23:34:05.462Z,4.23
2022-12-18T23:36:36.904Z,4.55
2022-12-18T23:39:15.495Z,4.68
2022-12-18T23:41:56.169Z,3.97
2022-12-18T23:44:22.729Z,4.60
2022-12-18T23:46:49.304Z,4.50
2022-12-18T23:49:15.871Z,4.15
2022-12-18T23:51:42.451Z,4.15
2022-12-18T23:54:10.238Z,4.38
2022-12-18T23:56:36.804Z,4.20
2022-12-18T23:59:03.622Z,4.30
